Match Point — CRA4590 — position and weather

sailwx.info

Track history (hours):
 
Tides and Currents Weather Stations Pressure Air Temp Water Temp Dewpoint Dewpoint Depression Visibility Wind Speed Wind Dir Waves Ship Positions

Match Point

Last reported at 2015-Aug-30 16:25 UTC. Time now 2015-Sep-02 19:06 UTC.
Position N 38°41' W 009°19'.

Length 15 m.

Type: Sailing vessel. MMSI: 263913640.

Date/timePositionNaut miles runAvg speedWind from/ knotsBaromVisibWave heightAir tempDewpointWater temp
2015-Aug-30 16:25N 38°41' W 009°19'5 5.9
2015-Aug-30 15:33N 38°36' W 009°16'8 6.5
2015-Aug-30 14:24N 38°30' W 009°11'17 4.5
2015-Aug-30 10:33N 38°13' W 009°06'3 2.8
2015-Aug-30 09:33N 38°11' W 009°04'8 7.5
2015-Aug-30 08:33N 38°04' W 008°59'8 7.5
2015-Aug-30 07:33N 37°57' W 008°55'2 0.1
2015-Aug-29 16:18N 37°57' W 008°52'0 0.0
2015-Aug-29 15:33N 37°57' W 008°52'3 2.7
2015-Aug-29 14:33N 37°54' W 008°51'5 5.1
2015-Aug-29 13:32N 37°50' W 008°48'7 7.4
2015-Aug-29 12:32N 37°43' W 008°51'40 5.6
2015-Aug-29 05:21N 37°02' W 008°47'7 7.9
2015-Aug-29 04:31N 37°05' W 008°40'1 1.2
2015-Aug-29 03:22N 37°06' W 008°40'0 0.0
2015-Aug-29 02:25N 37°06' W 008°40'0 0.0
2015-Aug-29 01:25N 37°06' W 008°40'0 0.0
2015-Aug-29 00:25N 37°06' W 008°40'0 0.0
2015-Aug-28 23:25N 37°06' W 008°40'0 0.0
2015-Aug-28 22:28N 37°06' W 008°40'0 0.0
2015-Aug-28 21:28N 37°06' W 008°40'0 0.0
2015-Aug-28 20:32N 37°06' W 008°40'0 0.0
2015-Aug-28 19:32N 37°06' W 008°40'0 0.0
2015-Aug-28 18:32N 37°06' W 008°40'0 0.0
2015-Aug-28 17:32N 37°06' W 008°40'0 0.0
2015-Aug-28 16:23N 37°06' W 008°40'0 0.0
2015-Aug-27 17:11N 37°06' W 008°40'8 4.9
2015-Aug-27 15:28N 36°58' W 008°43'8 8.0
2015-Aug-27 14:28N 37°04' W 008°36'4 3.9
2015-Aug-27 13:33N 37°04' W 008°31'2 1.7
2015-Aug-27 12:33N 37°05' W 008°33'5 4.8
2015-Aug-27 11:32N 37°05' W 008°39'2 0.0
2015-Aug-25 18:04N 37°06' W 008°40'3 0.5
2015-Aug-25 12:22N 37°04' W 008°43'3 3.5
2015-Aug-25 11:32N 37°06' W 008°40'1 0.0
2015-Aug-23 17:21N 37°06' W 008°40'4 4.2
2015-Aug-23 16:29N 37°06' W 008°36'2 1.9
2015-Aug-23 15:27N 37°07' W 008°34'0 0.0
2015-Aug-23 14:30N 37°07' W 008°34'0 0.0
2015-Aug-23 13:30N 37°07' W 008°34'4 4.2
2015-Aug-23 12:33N 37°07' W 008°39'1 0.1
2015-Aug-22 18:29N 37°05' W 008°40'5 4.6
2015-Aug-22 17:28N 37°07' W 008°34'0 0.4
2015-Aug-22 16:32N 37°07' W 008°34'0 0.0
2015-Aug-22 15:32N 37°07' W 008°34'0 0.0
2015-Aug-22 14:32N 37°07' W 008°34'0 0.0
2015-Aug-22 13:32N 37°07' W 008°34'4 4.5
2015-Aug-22 12:33N 37°06' W 008°39'2 0.1
2015-Aug-21 18:28N 37°05' W 008°40'4 3.5
2015-Aug-21 17:28N 37°07' W 008°37'1 1.2
2015-Aug-21 16:30N 37°07' W 008°36'3 2.7
2015-Aug-21 15:33N 37°07' W 008°39'1 0.1
2015-Aug-20 18:33N 37°06' W 008°37'  
Track history (hours):
 
Tides and Currents Weather Stations Pressure Air Temp Water Temp Dewpoint Dewpoint Depression Visibility Wind Speed Wind Dir Waves Ship Positions

Match Point

Last reported at 2015-Aug-30 16:25 UTC. Time now 2015-Sep-02 19:06 UTC.
Position N 38°41' W 009°19'.

Length 15 m.

Type: Sailing vessel. MMSI: 263913640.

Date/timePositionNaut miles runAvg speedWind from/ knotsBaromVisibWave heightAir tempDewpointWater temp
2015-Aug-30 16:25N 38°41' W 009°19'5 5.9
2015-Aug-30 15:33N 38°36' W 009°16'8 6.5
2015-Aug-30 14:24N 38°30' W 009°11'17 4.5
2015-Aug-30 10:33N 38°13' W 009°06'3 2.8
2015-Aug-30 09:33N 38°11' W 009°04'8 7.5
2015-Aug-30 08:33N 38°04' W 008°59'8 7.5
2015-Aug-30 07:33N 37°57' W 008°55'2 0.1
2015-Aug-29 16:18N 37°57' W 008°52'0 0.0
2015-Aug-29 15:33N 37°57' W 008°52'3 2.7
2015-Aug-29 14:33N 37°54' W 008°51'5 5.1
2015-Aug-29 13:32N 37°50' W 008°48'7 7.4
2015-Aug-29 12:32N 37°43' W 008°51'40 5.6
2015-Aug-29 05:21N 37°02' W 008°47'7 7.9
2015-Aug-29 04:31N 37°05' W 008°40'1 1.2
2015-Aug-29 03:22N 37°06' W 008°40'0 0.0
2015-Aug-29 02:25N 37°06' W 008°40'0 0.0
2015-Aug-29 01:25N 37°06' W 008°40'0 0.0
2015-Aug-29 00:25N 37°06' W 008°40'0 0.0
2015-Aug-28 23:25N 37°06' W 008°40'0 0.0
2015-Aug-28 22:28N 37°06' W 008°40'0 0.0
2015-Aug-28 21:28N 37°06' W 008°40'0 0.0
2015-Aug-28 20:32N 37°06' W 008°40'0 0.0
2015-Aug-28 19:32N 37°06' W 008°40'0 0.0
2015-Aug-28 18:32N 37°06' W 008°40'0 0.0
2015-Aug-28 17:32N 37°06' W 008°40'0 0.0
2015-Aug-28 16:23N 37°06' W 008°40'0 0.0
2015-Aug-27 17:11N 37°06' W 008°40'8 4.9
2015-Aug-27 15:28N 36°58' W 008°43'8 8.0
2015-Aug-27 14:28N 37°04' W 008°36'4 3.9
2015-Aug-27 13:33N 37°04' W 008°31'2 1.7
2015-Aug-27 12:33N 37°05' W 008°33'5 4.8
2015-Aug-27 11:32N 37°05' W 008°39'2 0.0
2015-Aug-25 18:04N 37°06' W 008°40'3 0.5
2015-Aug-25 12:22N 37°04' W 008°43'3 3.5
2015-Aug-25 11:32N 37°06' W 008°40'1 0.0
2015-Aug-23 17:21N 37°06' W 008°40'4 4.2
2015-Aug-23 16:29N 37°06' W 008°36'2 1.9
2015-Aug-23 15:27N 37°07' W 008°34'0 0.0
2015-Aug-23 14:30N 37°07' W 008°34'0 0.0
2015-Aug-23 13:30N 37°07' W 008°34'4 4.2
2015-Aug-23 12:33N 37°07' W 008°39'1 0.1
2015-Aug-22 18:29N 37°05' W 008°40'5 4.6
2015-Aug-22 17:28N 37°07' W 008°34'0 0.4
2015-Aug-22 16:32N 37°07' W 008°34'0 0.0
2015-Aug-22 15:32N 37°07' W 008°34'0 0.0
2015-Aug-22 14:32N 37°07' W 008°34'0 0.0
2015-Aug-22 13:32N 37°07' W 008°34'4 4.5
2015-Aug-22 12:33N 37°06' W 008°39'2 0.1
2015-Aug-21 18:28N 37°05' W 008°40'4 3.5
2015-Aug-21 17:28N 37°07' W 008°37'1 1.2
2015-Aug-21 16:30N 37°07' W 008°36'3 2.7
2015-Aug-21 15:33N 37°07' W 008°39'1 0.1
2015-Aug-20 18:33N 37°06' W 008°37'  

Dump ship's entire track history